createdAt,value
2018-11-12T00:00:08.470Z,10.42
2018-11-12T00:05:09.167Z,10.51
2018-11-12T00:10:09.726Z,10.34
2018-11-12T00:15:10.345Z,10.07
2018-11-12T00:20:11.002Z,10.30
2018-11-12T00:25:11.706Z,10.59
2018-11-12T00:30:12.331Z,10.95
2018-11-12T00:35:13.328Z,11.03
2018-11-12T00:40:13.912Z,11.17
2018-11-12T00:45:14.558Z,11.25
2018-11-12T00:50:15.259Z,11.23
2018-11-12T00:55:16.337Z,11.14
2018-11-12T01:00:16.933Z,11.13
2018-11-12T01:05:17.559Z,11.10
2018-11-12T01:10:18.411Z,10.93
2018-11-12T01:15:19.900Z,10.95
2018-11-12T01:20:20.679Z,10.88
2018-11-12T01:25:21.254Z,10.78
2018-11-12T01:30:21.860Z,11.04
2018-11-12T01:35:22.425Z,11.17
2018-11-12T01:40:23.062Z,10.70
2018-11-12T01:45:23.699Z,10.82
2018-11-12T01:50:24.325Z,11.33
2018-11-12T01:55:25.089Z,11.20
2018-11-12T02:00:25.962Z,11.13
2018-11-12T02:05:26.586Z,10.79
2018-11-12T02:10:27.326Z,11.11
2018-11-12T02:15:27.983Z,10.97
2018-11-12T02:20:28.808Z,11.07
2018-11-12T02:25:29.434Z,11.38
2018-11-12T02:30:30.248Z,11.74
2018-11-12T02:35:30.903Z,11.32
2018-11-12T02:40:31.521Z,11.58
2018-11-12T02:45:32.547Z,11.40
2018-11-12T02:50:33.260Z,11.73
2018-11-12T02:55:34.817Z,11.58
2018-11-12T03:00:35.697Z,11.41
2018-11-12T03:05:36.413Z,11.06
2018-11-12T03:10:37.073Z,11.15
2018-11-12T03:15:38.127Z,11.08
2018-11-12T03:20:38.900Z,10.79
2018-11-12T03:25:39.617Z,10.83
2018-11-12T03:30:40.501Z,10.76
2018-11-12T03:35:41.752Z,10.65
2018-11-12T03:40:42.539Z,10.60
2018-11-12T03:45:44.168Z,10.55
2018-11-12T03:50:45.079Z,10.64
2018-11-12T03:55:45.873Z,10.71
2018-11-12T04:00:46.561Z,10.51
2018-11-12T04:05:47.565Z,10.58
2018-11-12T04:10:48.389Z,10.82
2018-11-12T04:15:48.990Z,11.01
2018-11-12T04:20:49.635Z,10.81
2018-11-12T04:25:50.604Z,11.09
2018-11-12T04:30:51.394Z,10.84
2018-11-12T04:35:52.097Z,11.49
2018-11-12T04:40:52.746Z,11.46
2018-11-12T04:45:53.335Z,11.45
2018-11-12T04:50:54.112Z,11.30
2018-11-12T04:55:55.402Z,11.54
2018-11-12T05:00:56.243Z,11.57
2018-11-12T05:05:56.905Z,12.31
2018-11-12T05:10:57.664Z,13.30
2018-11-12T05:15:58.628Z,13.56
2018-11-12T05:20:59.422Z,13.83
2018-11-12T05:26:00.307Z,14.04
2018-11-12T05:31:00.987Z,14.19
2018-11-12T05:36:01.577Z,14.19
2018-11-12T05:41:02.168Z,14.25
2018-11-12T05:46:02.994Z,14.36
2018-11-12T05:51:03.573Z,14.56
2018-11-12T05:56:04.149Z,14.52
2018-11-12T06:01:04.813Z,14.50
2018-11-12T06:06:05.384Z,14.43
2018-11-12T06:11:06.089Z,14.53
2018-11-12T06:16:06.730Z,14.53
2018-11-12T06:21:07.357Z,14.63
2018-11-12T06:26:08.028Z,14.62
2018-11-12T06:31:08.673Z,14.52
2018-11-12T06:36:09.381Z,14.46
2018-11-12T06:41:10.170Z,14.35
2018-11-12T06:46:10.824Z,14.30
2018-11-12T06:51:11.463Z,14.19
2018-11-12T06:56:12.041Z,14.17
2018-11-12T07:01:12.673Z,14.16
2018-11-12T07:06:13.336Z,14.25
2018-11-12T07:11:13.875Z,14.18
2018-11-12T07:16:14.434Z,14.23
2018-11-12T07:21:15.059Z,14.35
2018-11-12T07:26:15.626Z,14.37
2018-11-12T07:31:16.395Z,14.51
2018-11-12T07:36:16.923Z,14.64
2018-11-12T07:41:17.534Z,14.67
2018-11-12T07:46:18.189Z,14.82
2018-11-12T07:51:18.859Z,14.97
2018-11-12T07:56:19.643Z,15.07
2018-11-12T08:01:20.159Z,15.13
2018-11-12T08:06:20.786Z,15.06
2018-11-12T08:11:21.367Z,15.18
2018-11-12T08:16:21.942Z,15.11
2018-11-12T08:21:22.502Z,15.24
2018-11-12T08:26:23.189Z,15.20
2018-11-12T08:31:23.830Z,15.14
2018-11-12T08:36:25.308Z,15.20
2018-11-12T08:41:25.858Z,15.11
2018-11-12T08:46:26.495Z,15.16
2018-11-12T08:51:27.211Z,15.27
2018-11-12T08:56:27.959Z,15.33
2018-11-12T09:01:28.545Z,15.30
2018-11-12T09:06:29.288Z,15.21
2018-11-12T09:11:29.967Z,15.54
2018-11-12T09:16:31.102Z,15.38
2018-11-12T09:21:31.929Z,15.50
2018-11-12T09:26:32.609Z,15.51
2018-11-12T09:31:33.456Z,15.53
2018-11-12T09:36:34.211Z,15.54
2018-11-12T09:41:34.880Z,15.51
2018-11-12T09:46:35.441Z,15.44
2018-11-12T09:51:36.051Z,15.52
2018-11-12T09:56:36.798Z,15.62
2018-11-12T10:01:37.875Z,15.84
2018-11-12T10:06:39.360Z,15.84
2018-11-12T10:11:41.165Z,16.02
2018-11-12T10:16:43.080Z,16.21
2018-11-12T10:21:41.217Z,16.27
2018-11-12T10:26:41.825Z,16.54
2018-11-12T10:31:42.538Z,16.47
2018-11-12T10:36:43.130Z,16.38
2018-11-12T10:41:43.708Z,16.27
2018-11-12T10:46:44.331Z,16.35
2018-11-12T10:51:44.973Z,16.49
2018-11-12T10:56:45.621Z,16.46
2018-11-12T11:01:46.270Z,16.69
2018-11-12T11:06:46.845Z,16.83
2018-11-12T11:11:47.671Z,16.99
2018-11-12T11:16:48.315Z,17.12
2018-11-12T11:21:48.984Z,17.04
2018-11-12T11:26:49.614Z,17.18
2018-11-12T11:31:50.376Z,17.24
2018-11-12T11:36:51.010Z,17.36
2018-11-12T11:41:51.671Z,17.47
2018-11-12T11:46:52.332Z,17.45
2018-11-12T11:51:52.963Z,17.45
2018-11-12T11:56:53.682Z,17.35
2018-11-12T12:01:54.282Z,17.26
2018-11-12T12:06:54.841Z,17.30
2018-11-12T12:11:55.411Z,17.29
2018-11-12T12:16:55.995Z,17.17
2018-11-12T12:21:57.602Z,17.26
2018-11-12T12:26:58.213Z,17.26
2018-11-12T12:31:58.931Z,17.27
2018-11-12T12:36:59.627Z,17.34
2018-11-12T12:42:00.270Z,17.37
2018-11-12T12:47:00.927Z,17.29
2018-11-12T12:52:01.498Z,17.29
2018-11-12T12:57:02.319Z,17.31
2018-11-12T13:02:03.252Z,18.14
2018-11-12T13:07:03.833Z,17.91
2018-11-12T13:12:04.483Z,18.08
2018-11-12T13:17:05.136Z,18.42
2018-11-12T13:22:05.702Z,18.71
2018-11-12T13:27:06.266Z,18.74
2018-11-12T13:32:07.228Z,18.30
2018-11-12T13:37:07.825Z,18.25
2018-11-12T13:42:08.471Z,17.86
2018-11-12T13:47:09.122Z,17.79
2018-11-12T13:52:09.686Z,17.43
2018-11-12T13:57:10.250Z,17.32
2018-11-12T14:02:11.074Z,17.24
2018-11-12T14:07:11.799Z,17.38
2018-11-12T14:12:12.483Z,17.48
2018-11-12T14:17:13.062Z,17.18
2018-11-12T14:22:13.637Z,16.96
2018-11-12T14:27:15.403Z,16.92
2018-11-12T14:32:16.078Z,16.89
2018-11-12T14:37:16.738Z,16.96
2018-11-12T14:42:17.456Z,16.99
2018-11-12T14:47:18.135Z,17.03
2018-11-12T14:52:18.801Z,16.93
2018-11-12T14:57:19.429Z,16.90
2018-11-12T15:02:20.082Z,16.90
2018-11-12T15:07:20.896Z,16.84
2018-11-12T15:12:21.593Z,16.81
2018-11-12T15:17:22.431Z,16.50
2018-11-12T15:22:23.118Z,16.44
2018-11-12T15:27:23.739Z,16.51
2018-11-12T15:32:24.394Z,16.50
2018-11-12T15:37:25.090Z,16.30
2018-11-12T15:42:25.658Z,16.15
2018-11-12T15:47:26.235Z,16.26
2018-11-12T15:52:26.987Z,16.29
2018-11-12T15:57:27.659Z,15.80
2018-11-12T16:02:28.121Z,14.27
2018-11-12T16:07:28.731Z,14.08
2018-11-12T16:12:29.539Z,14.12
2018-11-12T16:17:30.601Z,14.26
2018-11-12T16:22:31.254Z,14.45
2018-11-12T16:27:32.504Z,14.55
2018-11-12T16:32:33.317Z,14.47
2018-11-12T16:37:33.959Z,14.54
2018-11-12T16:42:34.540Z,14.32
2018-11-12T16:47:35.983Z,14.30
2018-11-12T16:52:36.599Z,14.31
2018-11-12T16:57:37.201Z,14.22
2018-11-12T17:02:38.266Z,14.15
2018-11-12T17:07:39.007Z,14.15
2018-11-12T17:12:39.659Z,14.16
2018-11-12T17:17:40.417Z,14.37
2018-11-12T17:22:40.971Z,14.63
2018-11-12T17:27:41.531Z,14.51
2018-11-12T17:32:42.162Z,14.54
2018-11-12T17:37:42.730Z,14.41
2018-11-12T17:42:43.294Z,14.37
2018-11-12T17:47:43.891Z,14.38
2018-11-12T17:52:44.463Z,14.35
2018-11-12T17:57:45.104Z,14.34
2018-11-12T18:02:45.657Z,14.47
2018-11-12T18:07:46.426Z,14.40
2018-11-12T18:12:46.816Z,14.30
2018-11-12T18:17:47.484Z,14.29
2018-11-12T18:22:48.142Z,14.26
2018-11-12T18:27:48.705Z,14.29
2018-11-12T18:32:49.698Z,14.29
2018-11-12T18:37:50.364Z,14.35
2018-11-12T18:42:50.934Z,14.29
2018-11-12T18:47:51.581Z,14.33
2018-11-12T18:52:52.226Z,14.30
2018-11-12T18:57:52.885Z,14.35
2018-11-12T19:02:54.296Z,14.26
2018-11-12T19:07:55.002Z,14.22
2018-11-12T19:12:55.660Z,14.05
2018-11-12T19:17:56.311Z,14.17
2018-11-12T19:22:56.939Z,14.16
2018-11-12T19:27:57.659Z,14.14
2018-11-12T19:32:58.223Z,14.13
2018-11-12T19:37:58.911Z,14.01
2018-11-12T19:43:00.206Z,14.09
2018-11-12T19:48:00.917Z,14.14
2018-11-12T19:53:02.546Z,14.06
2018-11-12T19:58:03.133Z,14.10
2018-11-12T20:03:04.072Z,14.06
2018-11-12T20:08:05.604Z,14.09
2018-11-12T20:13:06.201Z,14.07
2018-11-12T20:18:06.871Z,13.94
2018-11-12T20:23:07.489Z,14.01
2018-11-12T20:28:08.150Z,14.06
2018-11-12T20:33:09.527Z,14.04
2018-11-12T20:38:10.166Z,14.04
2018-11-12T20:43:10.810Z,14.08
2018-11-12T20:48:11.529Z,14.02
2018-11-12T20:53:12.107Z,13.92
2018-11-12T20:58:12.817Z,13.98
2018-11-12T21:03:13.408Z,13.81
2018-11-12T21:08:14.842Z,13.66
2018-11-12T21:13:15.634Z,13.80
2018-11-12T21:18:16.307Z,13.65
2018-11-12T21:23:16.935Z,13.71
2018-11-12T21:28:17.588Z,13.68
2018-11-12T21:33:18.221Z,13.58
2018-11-12T21:38:18.887Z,13.54
2018-11-12T21:43:20.494Z,13.75
2018-11-12T21:48:20.891Z,13.60
2018-11-12T21:53:22.263Z,13.56
2018-11-12T21:58:23.017Z,13.73
2018-11-12T22:03:24.403Z,13.59
2018-11-12T22:08:25.167Z,13.02
2018-11-12T22:13:25.775Z,12.80
2018-11-12T22:18:26.422Z,12.77
2018-11-12T22:23:28.465Z,12.91
2018-11-12T22:28:29.154Z,12.89
2018-11-12T22:33:29.717Z,12.88
2018-11-12T22:38:31.041Z,12.85
2018-11-12T22:43:31.753Z,12.88
2018-11-12T22:48:32.373Z,12.86
2018-11-12T22:53:33.522Z,12.77
2018-11-12T22:58:35.752Z,12.60
2018-11-12T23:03:36.353Z,12.55
2018-11-12T23:08:38.210Z,12.52
2018-11-12T23:13:38.808Z,12.45
2018-11-12T23:18:39.431Z,12.41
2018-11-12T23:23:40.083Z,12.34
2018-11-12T23:28:40.697Z,12.34
2018-11-12T23:33:41.271Z,12.32
2018-11-12T23:38:41.929Z,12.47
2018-11-12T23:43:42.574Z,12.64
2018-11-12T23:48:43.125Z,13.36
2018-11-12T23:53:43.766Z,13.01
2018-11-12T23:58:44.449Z,12.87
